Time;durP1;ratioP1;P1;durP2;ratioP2;P2;SDS_P1;SDS_P2;PMS_P1;PMS_P2;Temp;Humidity;BMP_temperature;BMP_pressure;BME280_temperature;BME280_humidity;BME280_pressure;Samples;Min_cycle;Max_cycle;Signal;HPM_P1;HPM_P2
2022/05/12 00:02:12;;;;;;;;;;;;;;;23.17;38.15;99852.69;4960718;28;115160;-62
2022/05/12 00:04:38;;;;;;;;;;;;;;;23.14;38.06;99845.16;4963422;28;98133;-63
2022/05/12 00:07:04;;;;;;;;;;;;;;;23.11;37.94;99851.38;4944273;28;119074;-62
2022/05/12 00:09:30;;;;;;;;;;;;;;;23.10;38.03;99847.06;4943406;28;98347;-62
2022/05/12 00:11:56;;;;;;;;;;;;;;;23.09;38.13;99850.97;4944172;28;105851;-63
2022/05/12 00:14:22;;;;;;;;;;;;;;;23.05;38.11;99848.16;4955678;28;98331;-62
2022/05/12 00:16:48;;;;;;;;;;;;;;;23.03;38.11;99854.03;4945075;28;97786;-62
2022/05/12 00:19:14;;;;;;;;;;;;;;;23.02;38.05;99852.44;4943550;28;99630;-63
2022/05/12 00:21:40;;;;;;;;;;;;;;;22.99;38.18;99846.84;4943021;28;126874;-64
2022/05/12 00:24:07;;;;;;;;;;;;;;;22.96;38.33;99851.16;4957780;28;125926;-63
2022/05/12 00:26:34;;;;;;;;;;;;;;;22.95;38.10;99851.50;4964793;28;98008;-62
2022/05/12 00:29:05;;;;;;;;;;;;;;;22.92;38.24;99855.00;4961931;28;98584;-62
2022/05/12 00:31:31;;;;;;;;;;;;;;;22.91;38.41;99854.22;4963470;28;98792;-62
2022/05/12 00:33:57;;;;;;;;;;;;;;;22.89;38.30;99850.19;4959376;28;126718;-62
2022/05/12 00:36:23;;;;;;;;;;;;;;;22.87;38.35;99847.00;4963181;28;117940;-62
2022/05/12 00:38:49;;;;;;;;;;;;;;;22.85;38.50;99844.63;4962422;28;98589;-63
2022/05/12 00:41:15;;;;;;;;;;;;;;;22.84;38.27;99840.31;4961126;28;129886;-62
2022/05/12 00:43:52;;;;;;;;;;;;;;;22.82;38.30;99844.56;4949812;28;126700;-62
2022/05/12 00:46:19;;;;;;;;;;;;;;;22.81;38.31;99840.25;4942860;28;112802;-62
2022/05/12 00:48:46;;;;;;;;;;;;;;;22.78;38.30;99839.78;4942295;28;125095;-63
2022/05/12 00:51:13;;;;;;;;;;;;;;;22.77;38.48;99834.69;4943166;28;106296;-62
2022/05/12 00:53:39;;;;;;;;;;;;;;;22.74;38.52;99836.19;4967749;28;118198;-63
2022/05/12 00:56:07;;;;;;;;;;;;;;;22.73;38.51;99845.59;4961306;28;97755;-63
2022/05/12 00:58:33;;;;;;;;;;;;;;;22.71;38.51;99845.16;4960567;28;126667;-62
2022/05/12 01:00:59;;;;;;;;;;;;;;;22.70;38.51;99843.56;4960563;28;106598;-62
2022/05/12 01:03:25;;;;;;;;;;;;;;;22.71;38.51;99838.88;4937918;28;128227;-63
2022/05/12 01:05:52;;;;;;;;;;;;;;;22.69;38.52;99835.72;4944313;28;117201;-62
2022/05/12 01:08:18;;;;;;;;;;;;;;;22.67;38.69;99835.25;4963048;28;98783;-63
2022/05/12 01:10:52;;;;;;;;;;;;;;;22.66;38.41;99833.69;4959816;28;116927;-62
2022/05/12 01:13:18;;;;;;;;;;;;;;;22.63;38.38;99843.44;4955667;28;97967;-62
2022/05/12 01:15:52;;;;;;;;;;;;;;;22.62;38.66;99838.31;4940635;28;98263;-63
2022/05/12 01:18:18;;;;;;;;;;;;;;;22.59;38.48;99841.78;4942345;28;99202;-62
2022/05/12 01:20:45;;;;;;;;;;;;;;;22.58;38.58;99845.69;4958900;28;98526;-62
2022/05/12 01:23:31;;;;;;;;;;;;;;;22.54;38.52;99835.44;4960026;28;98946;-63
2022/05/12 01:26:04;;;;;;;;;;;;;;;22.52;38.48;99843.25;4943519;28;97824;-62
2022/05/12 01:28:30;;;;;;;;;;;;;;;22.50;38.49;99847.50;4957858;28;98914;-63
2022/05/12 01:30:56;;;;;;;;;;;;;;;22.47;38.38;99838.03;4960114;28;98779;-62
2022/05/12 01:33:22;;;;;;;;;;;;;;;22.46;38.39;99836.44;4960903;28;128229;-62
2022/05/12 01:35:48;;;;;;;;;;;;;;;22.43;38.33;99848.16;4961046;28;97907;-62
2022/05/12 01:38:14;;;;;;;;;;;;;;;22.43;38.37;99847.34;4962298;28;98874;-63
2022/05/12 01:40:41;;;;;;;;;;;;;;;22.42;38.40;99843.03;4960637;28;102566;-63
2022/05/12 01:43:06;;;;;;;;;;;;;;;22.39;38.47;99843.75;4961795;28;98131;-63
2022/05/12 01:45:33;;;;;;;;;;;;;;;22.38;38.29;99834.72;4943880;28;116106;-62
2022/05/12 01:47:59;;;;;;;;;;;;;;;22.37;38.37;99843.31;4949922;28;98580;-64
2022/05/12 01:50:25;;;;;;;;;;;;;;;22.34;38.36;99839.34;4961018;28;119506;-62
2022/05/12 01:52:51;;;;;;;;;;;;;;;22.34;38.33;99844.84;4959597;28;127603;-62
2022/05/12 01:55:18;;;;;;;;;;;;;;;22.34;38.25;99841.28;4961330;28;117408;-63
2022/05/12 01:57:44;;;;;;;;;;;;;;;22.33;38.25;99842.47;4947821;28;99474;-63
2022/05/12 02:00:16;;;;;;;;;;;;;;;22.33;38.32;99848.75;4953295;28;123845;-62
2022/05/12 02:02:42;;;;;;;;;;;;;;;22.33;38.16;99848.75;4961212;28;98607;-63
2022/05/12 02:05:10;;;;;;;;;;;;;;;22.31;38.34;99853.78;4958970;28;100579;-63
2022/05/12 02:07:39;;;;;;;;;;;;;;;22.27;38.38;99848.22;4942206;28;99062;-62
2022/05/12 02:10:07;;;;;;;;;;;;;;;22.28;38.47;99854.50;4941690;28;106338;-63
2022/05/12 02:12:33;;;;;;;;;;;;;;;22.27;38.32;99863.91;4948219;28;97876;-62
2022/05/12 02:14:59;;;;;;;;;;;;;;;22.26;38.26;99863.09;4960961;28;117529;-62
2022/05/12 02:17:25;;;;;;;;;;;;;;;22.25;38.28;99866.22;4960918;28;125966;-62
2022/05/12 02:19:51;;;;;;;;;;;;;;;22.24;38.14;99868.16;4958184;28;127688;-63
2022/05/12 02:22:18;;;;;;;;;;;;;;;22.22;38.24;99866.94;4957182;28;97889;-62
2022/05/12 02:24:44;;;;;;;;;;;;;;;22.21;38.28;99870.84;4941471;28;98028;-63
2022/05/12 02:27:10;;;;;;;;;;;;;;;22.18;38.27;99874.28;4956661;28;98363;-63
2022/05/12 02:29:36;;;;;;;;;;;;;;;22.16;38.21;99871.91;4956623;28;127982;-62
2022/05/12 02:32:02;;;;;;;;;;;;;;;22.14;38.27;99879.72;4941168;28;127413;-62
2022/05/12 02:34:28;;;;;;;;;;;;;;;22.13;38.23;99880.03;4959321;28;108724;-62
2022/05/12 02:37:00;;;;;;;;;;;;;;;22.11;38.26;99880.38;4959042;28;124325;-62
2022/05/12 02:39:30;;;;;;;;;;;;;;;22.10;38.33;99889.78;4960821;28;98929;-62
2022/05/12 02:41:56;;;;;;;;;;;;;;;22.09;38.34;99887.41;4961016;28;110799;-62
2022/05/12 02:44:22;;;;;;;;;;;;;;;22.08;38.22;99886.59;4942375;28;97741;-62
2022/05/12 02:46:48;;;;;;;;;;;;;;;22.06;38.11;99892.44;4940635;28;127888;-62
2022/05/12 02:49:13;;;;;;;;;;;;;;;22.06;38.20;99895.19;4941477;28;98424;-62
2022/05/12 02:51:40;;;;;;;;;;;;;;;22.05;38.18;99887.31;4943476;28;98200;-62
2022/05/12 02:54:06;;;;;;;;;;;;;;;22.04;38.12;99902.19;4944198;28;97975;-62
2022/05/12 02:56:32;;;;;;;;;;;;;;;22.00;38.29;99904.84;4940884;28;127703;-62
2022/05/12 02:58:57;;;;;;;;;;;;;;;22.00;38.21;99913.06;4942790;28;128631;-62
2022/05/12 03:01:23;;;;;;;;;;;;;;;22.00;38.13;99920.50;4956697;28;125605;-63
2022/05/12 03:03:49;;;;;;;;;;;;;;;21.98;38.16;99920.09;4949799;28;116713;-63
2022/05/12 03:06:15;;;;;;;;;;;;;;;21.98;38.09;99933.81;4952673;28;128015;-62
2022/05/12 03:08:43;;;;;;;;;;;;;;;21.96;38.04;99936.09;4940411;28;127435;-62
2022/05/12 03:11:09;;;;;;;;;;;;;;;21.92;38.09;99935.22;4941233;28;98099;-62
2022/05/12 03:13:35;;;;;;;;;;;;;;;21.91;38.18;99950.09;4940023;28;119108;-62
2022/05/12 03:16:01;;;;;;;;;;;;;;;21.86;38.26;99945.69;4959386;28;127192;-62
2022/05/12 03:18:27;;;;;;;;;;;;;;;21.87;38.24;99950.00;4960245;28;103937;-62
2022/05/12 03:20:53;;;;;;;;;;;;;;;21.85;38.14;99957.81;4960083;28;97823;-63
2022/05/12 03:23:22;;;;;;;;;;;;;;;21.81;38.29;99954.97;4951114;28;114607;-62
2022/05/12 03:25:48;;;;;;;;;;;;;;;21.80;38.31;99960.78;4941186;28;98367;-62
2022/05/12 03:28:14;;;;;;;;;;;;;;;21.76;38.40;99949.72;4941763;28;119643;-63
2022/05/12 03:30:42;;;;;;;;;;;;;;;21.74;38.47;99965.75;4956921;28;116846;-62
2022/05/12 03:33:09;;;;;;;;;;;;;;;21.73;38.42;99974.31;4959577;28;97805;-62
2022/05/12 03:35:36;;;;;;;;;;;;;;;21.70;38.55;99969.56;4944459;28;98290;-62
2022/05/12 03:38:02;;;;;;;;;;;;;;;21.68;38.51;99972.66;4939516;28;98341;-62
2022/05/12 03:40:28;;;;;;;;;;;;;;;21.68;38.57;99985.56;4955861;28;106513;-62
2022/05/12 03:42:58;;;;;;;;;;;;;;;21.66;38.80;99987.88;4960545;28;97930;-62
2022/05/12 03:45:27;;;;;;;;;;;;;;;21.65;38.60;100000.78;4960500;28;98973;-62
2022/05/12 03:47:55;;;;;;;;;;;;;;;21.64;38.63;100001.94;4959679;28;120389;-62
2022/05/12 03:50:22;;;;;;;;;;;;;;;21.63;38.59;100013.25;4960019;28;98481;-62
2022/05/12 03:52:48;;;;;;;;;;;;;;;21.62;38.60;100026.19;4955143;28;115155;-62
2022/05/12 03:55:16;;;;;;;;;;;;;;;21.62;38.63;100033.63;4953793;28;98314;-63
2022/05/12 03:57:42;;;;;;;;;;;;;;;21.64;38.60;100043.06;4960625;28;98942;-62
2022/05/12 04:00:09;;;;;;;;;;;;;;;21.62;38.64;100042.63;4948084;28;97830;-62
2022/05/12 04:02:35;;;;;;;;;;;;;;;21.62;38.67;100053.59;4948758;28;104435;-62
2022/05/12 04:05:01;;;;;;;;;;;;;;;21.60;38.68;100074.28;4956964;28;98404;-63
2022/05/12 04:07:27;;;;;;;;;;;;;;;21.59;38.81;100080.94;4940025;28;122401;-62
2022/05/12 04:09:53;;;;;;;;;;;;;;;21.56;39.20;100123.53;4948501;28;119998;-62
2022/05/12 04:12:19;;;;;;;;;;;;;;;21.50;39.70;100128.50;4949873;28;117691;-63
2022/05/12 04:14:44;;;;;;;;;;;;;;;21.42;40.46;100142.31;4958519;28;129638;-63
2022/05/12 04:17:13;;;;;;;;;;;;;;;21.32;40.54;100149.06;4959955;28;121445;-63
2022/05/12 04:19:39;;;;;;;;;;;;;;;21.26;40.97;100139.47;4958879;28;98354;-62
2022/05/12 04:22:05;;;;;;;;;;;;;;;21.20;41.23;100147.16;4960956;28;97782;-63
2022/05/12 04:24:31;;;;;;;;;;;;;;;21.16;41.43;100151.72;4942098;28;122410;-62
2022/05/12 04:26:57;;;;;;;;;;;;;;;21.18;41.09;100162.34;4953574;28;128625;-62
2022/05/12 04:29:24;;;;;;;;;;;;;;;21.24;41.35;100169.19;4941389;28;98209;-62
2022/05/12 04:31:49;;;;;;;;;;;;;;;21.31;41.36;100177.63;4939694;28;98228;-63
2022/05/12 04:37:00;;;;;;;;;;;;;;;21.39;41.66;100195.91;4938011;28;98045;-63
2022/05/12 04:39:26;;;;;;;;;;;;;;;21.37;42.08;100189.97;4940709;28;119641;-63
2022/05/12 04:41:52;;;;;;;;;;;;;;;21.42;41.95;100194.41;4940836;28;97933;-63
2022/05/12 04:44:19;;;;;;;;;;;;;;;21.44;41.92;100195.66;4953384;28;128305;-63
2022/05/12 04:46:45;;;;;;;;;;;;;;;21.44;42.17;100208.56;4963359;28;98230;-64
2022/05/12 04:49:13;;;;;;;;;;;;;;;21.46;42.05;100217.28;4963011;28;98455;-63
2022/05/12 04:51:39;;;;;;;;;;;;;;;21.50;42.02;100223.66;4963376;28;97929;-63
2022/05/12 04:54:09;;;;;;;;;;;;;;;21.57;41.98;100223.84;4952716;28;128525;-63
2022/05/12 04:56:38;;;;;;;;;;;;;;;21.61;41.90;100232.97;4962654;28;98912;-63
2022/05/12 04:59:04;;;;;;;;;;;;;;;21.75;41.94;100230.66;4960052;28;98276;-63
2022/05/12 05:01:30;;;;;;;;;;;;;;;21.73;42.02;100246.66;4943740;28;97936;-63
2022/05/12 05:03:59;;;;;;;;;;;;;;;21.70;42.01;100250.09;4958207;28;127441;-63
2022/05/12 05:06:26;;;;;;;;;;;;;;;21.67;42.09;100244.50;4956301;28;99661;-63
2022/05/12 05:08:52;;;;;;;;;;;;;;;21.64;42.02;100261.66;4959853;28;123988;-63
2022/05/12 05:11:18;;;;;;;;;;;;;;;21.67;42.15;100271.94;4942395;28;117832;-63
2022/05/12 05:13:44;;;;;;;;;;;;;;;21.70;42.18;100276.72;4951055;28;99141;-63
2022/05/12 05:16:10;;;;;;;;;;;;;;;21.72;42.17;100271.69;4963369;28;98496;-63
2022/05/12 05:18:38;;;;;;;;;;;;;;;21.81;42.12;100280.56;4960436;28;98302;-63
2022/05/12 05:21:04;;;;;;;;;;;;;;;21.92;41.91;100278.94;4941489;28;97815;-62
2022/05/12 05:23:29;;;;;;;;;;;;;;;21.89;42.22;100287.06;4952901;28;123069;-63
2022/05/12 05:25:55;;;;;;;;;;;;;;;21.87;42.16;100298.38;4941332;28;126399;-63
2022/05/12 05:28:21;;;;;;;;;;;;;;;21.99;42.00;100294.81;4941646;28;126106;-63
2022/05/12 05:30:47;;;;;;;;;;;;;;;22.02;42.06;100294.13;4943209;28;97845;-63
2022/05/12 05:33:13;;;;;;;;;;;;;;;21.99;42.05;100295.59;4945292;28;99004;-63
2022/05/12 05:35:39;;;;;;;;;;;;;;;22.14;41.98;100310.56;4961548;28;98428;-63
2022/05/12 05:38:05;;;;;;;;;;;;;;;22.16;41.85;100316.50;4961659;28;104679;-63
2022/05/12 05:40:31;;;;;;;;;;;;;;;22.04;42.06;100320.03;4961977;28;99971;-63
2022/05/12 05:42:57;;;;;;;;;;;;;;;21.88;42.40;100332.91;4957863;28;128149;-62
2022/05/12 05:45:24;;;;;;;;;;;;;;;21.79;42.37;100335.00;4950697;28;127918;-62
2022/05/12 05:47:51;;;;;;;;;;;;;;;21.98;42.27;100343.41;4940028;28;98335;-62
2022/05/12 05:50:23;;;;;;;;;;;;;;;22.19;41.89;100354.22;4955255;28;97871;-62
2022/05/12 05:53:31;;;;;;;;;;;;;;;22.72;41.23;100354.94;4956528;28;116902;-63
2022/05/12 05:55:38;;;;;;;;;;;;;;;23.20;40.76;100355.78;4958399;28;98340;-63
2022/05/12 05:58:04;;;;;;;;;;;;;;;23.01;41.02;100353.75;4959884;28;126823;-63
2022/05/12 06:00:33;;;;;;;;;;;;;;;22.94;41.25;100370.03;4962349;28;97804;-62
2022/05/12 06:02:59;;;;;;;;;;;;;;;22.82;41.54;100378.31;4962303;28;98221;-62
2022/05/12 06:05:25;;;;;;;;;;;;;;;22.69;41.45;100382.31;4954797;28;116538;-63
2022/05/12 06:07:52;;;;;;;;;;;;;;;22.61;41.56;100389.53;4957200;28;126908;-62
2022/05/12 06:10:18;;;;;;;;;;;;;;;22.55;41.64;100393.69;4942530;28;108587;-63
2022/05/12 06:12:44;;;;;;;;;;;;;;;22.53;41.57;100396.00;4941033;28;99082;-63
2022/05/12 06:15:11;;;;;;;;;;;;;;;22.59;41.18;100394.56;4941656;28;98830;-63
2022/05/12 06:17:38;;;;;;;;;;;;;;;22.73;40.82;100411.47;4956363;28;98589;-63
2022/05/12 06:20:06;;;;;;;;;;;;;;;23.18;40.28;100410.31;4954100;28;98196;-63
2022/05/12 06:22:32;;;;;;;;;;;;;;;23.04;40.52;100420.97;4956328;28;98344;-63
2022/05/12 06:24:58;;;;;;;;;;;;;;;23.10;40.43;100435.22;4942928;28;99169;-63
2022/05/12 06:27:24;;;;;;;;;;;;;;;23.31;40.00;100432.25;4943239;28;98292;-63
2022/05/12 06:29:51;;;;;;;;;;;;;;;23.62;39.55;100445.19;4946170;28;98283;-63
2022/05/12 06:32:17;;;;;;;;;;;;;;;23.92;38.98;100442.78;4941517;28;98458;-63
2022/05/12 06:34:43;;;;;;;;;;;;;;;24.66;38.05;100451.91;4941650;28;98564;-63
2022/05/12 06:37:10;;;;;;;;;;;;;;;25.10;37.52;100446.09;4941509;28;126503;-63
2022/05/12 06:39:36;;;;;;;;;;;;;;;25.85;36.77;100452.88;4942065;28;97776;-64
2022/05/12 06:42:02;;;;;;;;;;;;;;;26.64;35.54;100465.84;4945961;28;128126;-63
2022/05/12 06:44:29;;;;;;;;;;;;;;;27.59;34.41;100463.69;4940291;28;125256;-63
2022/05/12 06:46:55;;;;;;;;;;;;;;;28.48;32.99;100458.75;4941822;28;98499;-63
2022/05/12 06:49:21;;;;;;;;;;;;;;;28.88;32.50;100473.56;4942003;28;107589;-63
2022/05/12 06:51:47;;;;;;;;;;;;;;;28.96;32.49;100479.94;4960907;28;99819;-63
2022/05/12 06:54:13;;;;;;;;;;;;;;;29.14;31.90;100477.25;4960663;28;126727;-64
2022/05/12 06:56:41;;;;;;;;;;;;;;;29.39;31.89;100480.03;4960052;28;127911;-63
2022/05/12 06:59:07;;;;;;;;;;;;;;;29.29;31.56;100484.41;4957619;28;98188;-63
2022/05/12 07:01:34;;;;;;;;;;;;;;;28.94;32.08;100496.19;4957492;28;98552;-64
2022/05/12 07:04:00;;;;;;;;;;;;;;;28.76;31.51;100502.44;4954745;28;115049;-63
2022/05/12 07:06:27;;;;;;;;;;;;;;;29.21;30.81;100505.00;4968464;28;98504;-63
2022/05/12 07:08:53;;;;;;;;;;;;;;;29.70;29.93;100525.69;4960468;28;97875;-63
2022/05/12 07:11:19;;;;;;;;;;;;;;;29.92;29.60;100507.84;4944191;28;128977;-63
2022/05/12 07:13:45;;;;;;;;;;;;;;;30.12;28.88;100519.34;4941147;28;98485;-66
2022/05/12 07:16:11;;;;;;;;;;;;;;;30.33;28.38;100526.88;4935007;28;98367;-63
2022/05/12 07:18:37;;;;;;;;;;;;;;;30.50;28.50;100530.81;4941374;28;113628;-63
2022/05/12 07:26:35;;;;;;;;;;;;;;;31.40;27.09;100553.47;4960372;28;98045;-63
2022/05/12 07:29:04;;;;;;;;;;;;;;;31.59;26.57;100543.81;4946398;28;98110;-63
2022/05/12 07:31:30;;;;;;;;;;;;;;;31.81;26.10;100558.38;4956873;28;98359;-63
2022/05/12 07:34:00;;;;;;;;;;;;;;;32.08;25.51;100555.78;4960245;28;120874;-63
2022/05/12 07:36:37;;;;;;;;;;;;;;;32.30;24.95;100564.72;4937064;28;98079;-63
2022/05/12 07:39:03;;;;;;;;;;;;;;;32.49;24.96;100572.53;4941024;28;97887;-63
2022/05/12 07:41:29;;;;;;;;;;;;;;;32.40;24.67;100577.81;4941280;28;98596;-63
2022/05/12 07:43:55;;;;;;;;;;;;;;;32.84;24.60;100562.97;4941969;28;98286;-63
2022/05/12 07:46:23;;;;;;;;;;;;;;;33.13;24.43;100571.81;4959028;28;120723;-63
2022/05/12 07:48:50;;;;;;;;;;;;;;;33.50;24.17;100572.91;4960681;28;97893;-63
2022/05/12 07:51:17;;;;;;;;;;;;;;;33.95;23.81;100592.13;4961364;28;98507;-64
2022/05/12 07:53:46;;;;;;;;;;;;;;;34.42;22.72;100590.13;4959380;28;97882;-63
2022/05/12 07:56:12;;;;;;;;;;;;;;;34.91;22.36;100603.63;4940753;28;97965;-63
2022/05/12 07:58:38;;;;;;;;;;;;;;;35.28;22.36;100599.66;4958831;28;97939;-63
2022/05/12 08:01:05;;;;;;;;;;;;;;;35.58;21.87;100612.63;4958541;28;98395;-63
2022/05/12 08:03:31;;;;;;;;;;;;;;;35.96;21.74;100603.72;4958697;28;99074;-64
2022/05/12 08:05:58;;;;;;;;;;;;;;;36.49;21.00;100614.81;4948261;28;128193;-64
2022/05/12 08:08:24;;;;;;;;;;;;;;;37.07;20.38;100620.44;4960392;28;97840;-65
2022/05/12 08:10:50;;;;;;;;;;;;;;;37.83;20.18;100625.31;4958735;28;128144;-64
2022/05/12 08:13:16;;;;;;;;;;;;;;;38.58;19.78;100639.72;4938361;28;98861;-64
2022/05/12 08:15:43;;;;;;;;;;;;;;;39.32;19.31;100646.69;4938982;28;128408;-64
2022/05/12 08:18:09;;;;;;;;;;;;;;;40.03;18.87;100659.97;4958079;28;103883;-64
2022/05/12 08:20:35;;;;;;;;;;;;;;;40.47;18.79;100660.53;4954761;28;129244;-63
2022/05/12 08:23:01;;;;;;;;;;;;;;;40.37;18.50;100658.19;4943321;28;115193;-64
2022/05/12 08:25:27;;;;;;;;;;;;;;;40.94;17.97;100667.75;4943413;28;126443;-63
2022/05/12 08:27:53;;;;;;;;;;;;;;;41.51;17.72;100672.88;4958371;28;116173;-64
2022/05/12 08:30:19;;;;;;;;;;;;;;;41.89;17.20;100702.56;4962669;28;127579;-64
2022/05/12 08:32:45;;;;;;;;;;;;;;;42.00;17.07;100694.34;4964387;28;98808;-64
2022/05/12 08:35:11;;;;;;;;;;;;;;;42.03;16.97;100682.06;4950308;28;98106;-64
2022/05/12 08:37:37;;;;;;;;;;;;;;;42.45;16.40;100688.88;4956248;28;101018;-62
2022/05/12 08:40:03;;;;;;;;;;;;;;;43.07;16.16;100702.25;4962982;28;98288;-62
2022/05/12 08:42:43;;;;;;;;;;;;;;;43.44;16.39;100704.69;4956962;28;97639;-62
2022/05/12 08:45:11;;;;;;;;;;;;;;;43.58;16.18;100701.84;4942786;28;98592;-62
2022/05/12 08:47:44;;;;;;;;;;;;;;;43.90;15.92;100696.44;4959906;28;98800;-63
2022/05/12 08:50:15;;;;;;;;;;;;;;;44.24;15.73;100702.59;4950108;28;101124;-63
2022/05/12 08:52:49;;;;;;;;;;;;;;;44.60;15.31;100695.56;4957708;28;98581;-62
2022/05/12 08:55:20;;;;;;;;;;;;;;;44.75;15.41;100693.44;4942787;28;108131;-62
2022/05/12 08:57:56;;;;;;;;;;;;;;;44.86;15.66;100694.84;4956472;28;98334;-62
2022/05/12 09:00:23;;;;;;;;;;;;;;;45.09;15.42;100698.72;4948809;28;98439;-62
2022/05/12 09:02:54;;;;;;;;;;;;;;;45.07;15.33;100702.06;4953826;28;98776;-62
2022/05/12 09:05:32;;;;;;;;;;;;;;;45.01;15.07;100695.53;4959496;28;119374;-62
2022/05/12 09:08:15;;;;;;;;;;;;;;;45.14;14.90;100695.16;4947474;28;97858;-62
2022/05/12 09:11:04;;;;;;;;;;;;;;;44.42;15.20;100704.41;4941771;28;98217;-61
2022/05/12 09:13:49;;;;;;;;;;;;;;;43.13;16.00;100688.97;4927333;28;98665;-61
2022/05/12 09:16:23;;;;;;;;;;;;;;;42.16;16.47;100693.94;4957369;28;100301;-61
2022/05/12 09:18:51;;;;;;;;;;;;;;;41.77;16.61;100692.22;4943574;28;97907;-61
2022/05/12 09:21:37;;;;;;;;;;;;;;;41.75;16.61;100711.72;4942210;28;99061;-61
2022/05/12 09:24:03;;;;;;;;;;;;;;;42.23;16.63;100715.44;4946449;28;97945;-61
2022/05/12 09:26:33;;;;;;;;;;;;;;;42.87;16.14;100717.06;4959749;28;98071;-61
2022/05/12 09:29:27;;;;;;;;;;;;;;;43.37;15.88;100715.16;4943012;28;97761;-61
2022/05/12 09:31:57;;;;;;;;;;;;;;;44.23;15.42;100723.75;4941562;28;98308;-61
2022/05/12 09:34:26;;;;;;;;;;;;;;;44.76;15.11;100722.63;4942290;28;98919;-61
2022/05/12 09:36:52;;;;;;;;;;;;;;;44.90;15.05;100718.91;4946573;28;97910;-61
2022/05/12 09:39:31;;;;;;;;;;;;;;;45.31;14.74;100730.19;4962212;28;98188;-61
2022/05/12 09:41:57;;;;;;;;;;;;;;;45.44;14.52;100730.59;4961651;28;98958;-61
2022/05/12 09:44:25;;;;;;;;;;;;;;;45.60;14.37;100731.25;4958378;28;127864;-62
2022/05/12 09:47:00;;;;;;;;;;;;;;;45.96;14.08;100721.94;4945451;28;98057;-61
2022/05/12 09:49:31;;;;;;;;;;;;;;;46.14;14.06;100737.84;4962177;28;98185;-61
2022/05/12 09:51:57;;;;;;;;;;;;;;;46.34;13.69;100733.28;4952910;28;99115;-61
2022/05/12 09:54:29;;;;;;;;;;;;;;;46.40;13.59;100726.34;4947675;28;107912;-62
2022/05/12 09:57:17;;;;;;;;;;;;;;;46.17;13.46;100721.78;4957260;28;128492;-61
2022/05/12 09:59:44;;;;;;;;;;;;;;;46.24;13.77;100724.97;4957504;28;97776;-62
2022/05/12 10:07:53;;;;;;;;;;;;;;;46.00;13.93;100711.09;4962586;28;98554;-61
2022/05/12 10:08:24;;;;;;;;;;;;;;;45.05;14.07;100716.00;4957300;28;98031;-62
2022/05/12 10:11:09;;;;;;;;;;;;;;;45.08;14.04;100712.13;4960340;28;97926;-61
2022/05/12 10:13:43;;;;;;;;;;;;;;;44.92;14.22;100712.72;4959117;28;103002;-62
2022/05/12 10:16:09;;;;;;;;;;;;;;;44.70;14.44;100710.44;4959021;28;128257;-61
2022/05/12 10:19:06;;;;;;;;;;;;;;;44.35;14.29;100714.13;4958870;28;122996;-62
2022/05/12 10:21:37;;;;;;;;;;;;;;;43.61;14.54;100700.88;4955999;28;109619;-61
2022/05/12 10:24:25;;;;;;;;;;;;;;;44.02;14.52;100709.53;4941240;28;115923;-62
2022/05/12 10:26:56;;;;;;;;;;;;;;;41.09;15.62;100704.66;4972632;28;99655;-61
2022/05/12 10:29:27;;;;;;;;;;;;;;;41.88;15.12;100709.50;4956322;28;98091;-62
2022/05/12 10:32:33;;;;;;;;;;;;;;;42.20;14.99;100719.22;4957515;28;98147;-61
2022/05/12 10:35:18;;;;;;;;;;;;;;;41.17;15.35;100719.25;4941290;28;98348;-61
2022/05/12 10:37:51;;;;;;;;;;;;;;;40.74;16.09;100723.94;4940027;28;98702;-62
2022/05/12 10:40:38;;;;;;;;;;;;;;;41.36;15.73;100715.13;4966038;28;97817;-61
2022/05/12 10:43:32;;;;;;;;;;;;;;;41.64;15.69;100706.59;4958371;28;116083;-62
2022/05/12 10:46:14;;;;;;;;;;;;;;;41.68;15.66;100715.69;4940044;28;98541;-62
2022/05/12 10:49:06;;;;;;;;;;;;;;;41.77;15.61;100712.03;4955789;28;102635;-62
2022/05/12 10:51:37;;;;;;;;;;;;;;;40.78;15.90;100713.28;4957477;28;124235;-62
2022/05/12 10:54:22;;;;;;;;;;;;;;;41.19;15.67;100706.22;4959736;28;97848;-61
2022/05/12 10:57:10;;;;;;;;;;;;;;;41.54;15.85;100707.88;4959429;28;98866;-61
2022/05/12 10:59:52;;;;;;;;;;;;;;;41.71;15.87;100714.72;4957922;28;98400;-61
2022/05/12 11:02:39;;;;;;;;;;;;;;;41.71;15.86;100711.91;4959392;28;107361;-61
2022/05/12 11:05:30;;;;;;;;;;;;;;;41.68;15.66;100707.97;4957120;28;98092;-61
2022/05/12 11:08:07;;;;;;;;;;;;;;;41.60;15.74;100703.94;4941060;28;98195;-62
2022/05/12 11:10:41;;;;;;;;;;;;;;;41.50;15.86;100710.09;4966398;28;127476;-61
2022/05/12 11:13:37;;;;;;;;;;;;;;;41.31;16.05;100710.13;4943109;28;98199;-61
2022/05/12 11:16:05;;;;;;;;;;;;;;;40.98;16.20;100721.31;4933643;28;97849;-61
2022/05/12 11:18:42;;;;;;;;;;;;;;;40.53;15.84;100711.53;4938075;28;121149;-61
2022/05/12 11:21:19;;;;;;;;;;;;;;;39.96;16.08;100696.94;4950459;28;125121;-61
2022/05/12 11:24:11;;;;;;;;;;;;;;;39.51;16.42;100716.00;4942390;28;98338;-62
2022/05/12 11:26:49;;;;;;;;;;;;;;;39.23;16.53;100708.63;4953946;28;97842;-62
2022/05/12 11:29:44;;;;;;;;;;;;;;;39.01;16.61;100706.56;4941440;28;98753;-63
2022/05/12 11:32:09;;;;;;;;;;;;;;;38.16;17.63;100713.09;4940677;28;99026;-62
2022/05/12 11:34:36;;;;;;;;;;;;;;;38.33;17.46;100715.75;4940640;28;102235;-61
2022/05/12 11:37:25;;;;;;;;;;;;;;;38.41;17.08;100714.31;4939024;28;115666;-61
2022/05/12 11:39:54;;;;;;;;;;;;;;;38.34;19.49;100706.09;4945667;28;98704;-62
2022/05/12 11:42:25;;;;;;;;;;;;;;;38.21;19.08;100706.88;4960729;28;98518;-62
2022/05/12 11:44:55;;;;;;;;;;;;;;;38.04;19.79;100713.84;4948065;28;98179;-63
2022/05/12 11:47:44;;;;;;;;;;;;;;;37.83;19.66;100721.72;4942615;28;97879;-62
2022/05/12 11:50:38;;;;;;;;;;;;;;;37.61;19.64;100712.34;4941713;28;97977;-63
2022/05/12 11:53:25;;;;;;;;;;;;;;;37.39;19.52;100715.00;4954220;28;122316;-62
2022/05/12 11:56:09;;;;;;;;;;;;;;;37.17;19.30;100709.19;4947817;28;98539;-63
2022/05/12 11:58:44;;;;;;;;;;;;;;;37.00;19.30;100708.47;4961892;28;97867;-61
2022/05/12 12:01:11;;;;;;;;;;;;;;;36.82;19.33;100720.16;4959326;28;98675;-62
2022/05/12 12:03:48;;;;;;;;;;;;;;;36.73;18.93;100722.03;4966576;28;98931;-63
2022/05/12 12:06:38;;;;;;;;;;;;;;;36.59;18.95;100709.97;4954442;28;97869;-62
2022/05/12 12:09:35;;;;;;;;;;;;;;;36.49;18.77;100715.84;4947226;28;97883;-62
2022/05/12 12:12:02;;;;;;;;;;;;;;;36.31;18.53;100707.81;4966783;28;98151;-61
2022/05/12 12:14:46;;;;;;;;;;;;;;;36.12;18.66;100712.31;4964855;28;98611;-62
2022/05/12 12:17:31;;;;;;;;;;;;;;;36.07;18.66;100715.63;4967181;28;98329;-62
2022/05/12 12:19:59;;;;;;;;;;;;;;;35.89;18.72;100718.81;4957313;28;97899;-61
2022/05/12 12:22:50;;;;;;;;;;;;;;;35.74;18.96;100718.34;4965532;28;98910;-63
2022/05/12 12:25:36;;;;;;;;;;;;;;;35.74;18.94;100709.94;4963945;28;118444;-62
2022/05/12 12:28:24;;;;;;;;;;;;;;;35.52;19.00;100715.22;4965835;28;116439;-62
2022/05/12 12:31:16;;;;;;;;;;;;;;;35.34;18.91;100718.38;4941265;28;97919;-61
2022/05/12 12:34:13;;;;;;;;;;;;;;;35.07;19.03;100712.91;4946143;28;98695;-62
2022/05/12 12:36:49;;;;;;;;;;;;;;;35.13;18.95;100725.19;4958816;28;99518;-62
2022/05/12 12:39:37;;;;;;;;;;;;;;;35.07;19.24;100718.50;4946500;28;98343;-62
2022/05/12 12:42:27;;;;;;;;;;;;;;;35.02;18.64;100721.00;4959868;28;97597;-61
2022/05/12 12:45:04;;;;;;;;;;;;;;;34.73;18.40;100713.13;4946254;28;98965;-62
2022/05/12 12:48:04;;;;;;;;;;;;;;;34.57;18.40;100711.00;4947682;28;98409;-62
2022/05/12 12:50:41;;;;;;;;;;;;;;;34.44;18.93;100721.19;4955116;28;98152;-62
2022/05/12 12:53:10;;;;;;;;;;;;;;;34.30;19.15;100719.41;4948437;28;97973;-61
2022/05/12 12:58:39;;;;;;;;;;;;;;;34.17;19.25;100701.66;4944223;28;98143;-62
2022/05/12 13:01:17;;;;;;;;;;;;;;;34.13;19.20;100709.31;4969859;28;98364;-62
2022/05/12 13:03:52;;;;;;;;;;;;;;;34.12;19.11;100705.72;4965129;28;97669;-62
2022/05/12 13:06:30;;;;;;;;;;;;;;;34.06;19.55;100707.41;4942342;28;98379;-61
2022/05/12 13:09:09;;;;;;;;;;;;;;;33.93;19.67;100707.16;4943566;28;98954;-61